This is the latest recevied weather packets stored in our database for station/object EI4HQ. If no packets are shown the sender has not sent any weather packets the latest 1 day(s).
| Time | Temp. | Humidity | Pressure | Rain* | Wind** | Luminosity | Snow |
|---|---|---|---|---|---|---|---|
| 1777977363 | 12.78° C | 65% | 1017.3 hPa | 0 mm | 2.68 m/s, 340° | - | - |
| 1777976823 | 12.78° C | 67% | 1017.4 hPa | 0 mm | 2.24 m/s, 345° | - | - |
| 1777976283 | 12.78° C | 67% | 1017.4 hPa | 0 mm | 2.68 m/s, 342° | - | - |
| 1777975743 | 12.78° C | 66% | 1017.5 hPa | 0 mm | 2.24 m/s, 344° | - | - |
| 1777975203 | 13.33° C | 67% | 1017.4 hPa | 0 mm | 0.45 m/s, 324° | - | - |
| 1777974843 | 13.33° C | 67% | 1017.4 hPa | 0 mm | 0.89 m/s, 343° | - | - |
| 1777974303 | 12.78° C | 68% | 1017.4 hPa | 0 mm | 1.79 m/s, 334° | - | - |
| 1777973763 | 12.78° C | 67% | 1017.4 hPa | 0 mm | 1.34 m/s, 334° | - | - |
| 1777973223 | 12.78° C | 67% | 1017.5 hPa | 0 mm | 0.89 m/s, 336° | - | - |
| 1777972683 | 12.78° C | 69% | 1017.4 hPa | 0 mm | 0.89 m/s, 340° | - | - |
| 1777972143 | 12.22° C | 70% | 1017.4 hPa | 0 mm | 1.34 m/s, 335° | - | - |
| 1777971603 | 12.22° C | 71% | 1017.4 hPa | 0 mm | 1.34 m/s, 336° | - | - |
| 1777971243 | 12.22° C | 72% | 1017.4 hPa | 0 mm | 1.34 m/s, 335° | - | - |
| 1777970703 | 11.67° C | 74% | 1017.4 hPa | 0 mm | 0.89 m/s, 338° | - | - |
| 1777970163 | 11.11° C | 74% | 1017.5 hPa | 0 mm | 1.79 m/s, 338° | - | - |
| 1777969623 | 11.11° C | 75% | 1017.5 hPa | 0 mm | 2.24 m/s, 343° | - | - |
| 1777969083 | 11.11° C | 77% | 1017.5 hPa | 0 mm | 1.79 m/s, 349° | - | - |
| 1777968543 | 10.56° C | 78% | 1017.4 hPa | 0 mm | 1.79 m/s, 352° | - | - |
| 1777968003 | 10.56° C | 79% | 1017.5 hPa | 0 mm | 1.79 m/s, 343° | - | - |
| 1777967643 | 10° C | 80% | 1017.4 hPa | 0 mm | 1.79 m/s, 342° | - | - |
| 1777967103 | 10° C | 81% | 1017.5 hPa | 0 mm | 2.24 m/s, 339° | - | - |
| 1777966563 | 10° C | 81% | 1017.4 hPa | 0 mm | 2.68 m/s, 340° | - | - |
| 1777966023 | 10° C | 81% | 1017.3 hPa | 0 mm | 2.24 m/s, 342° | - | - |
| 1777965483 | 9.44° C | 81% | 1017.3 hPa | 0 mm | 3.13 m/s, 338° | - | - |
| 1777964943 | 9.44° C | 82% | 1017.3 hPa | 0 mm | 3.58 m/s, 339° | - | - |
* Rain latest hour (hover to see other rain measurements)
** Current wind speed in m/s (hover to see current wind gust speed)